Time;durP1;ratioP1;P1;durP2;ratioP2;P2;SDS_P1;SDS_P2;PMS_P1;PMS_P2;Temp;Humidity;BMP_temperature;BMP_pressure;BME280_temperature;BME280_humidity;BME280_pressure;Samples;Min_cycle;Max_cycle;Signal;HPM_P1;HPM_P2
2023/07/04 00:01:11;;;;;;;9.02;2.15;;;;;;;11.52;100.00;100809.56;5042576;28;20045;-80
2023/07/04 00:03:41;;;;;;;11.88;2.30;;;;;;;11.51;100.00;100806.06;5030448;28;20045;-79
2023/07/04 00:06:10;;;;;;;8.07;1.95;;;;;;;11.50;100.00;100795.50;5029197;28;20045;-80
2023/07/04 00:08:37;;;;;;;8.98;2.80;;;;;;;11.48;100.00;100806.06;5010172;28;20061;-80
2023/07/04 00:11:07;;;;;;;12.70;2.10;;;;;;;11.48;100.00;100807.81;5011274;28;20045;-80
2023/07/04 00:13:36;;;;;;;9.60;2.45;;;;;;;11.45;100.00;100794.63;5017719;28;20056;-78
2023/07/04 00:16:09;;;;;;;6.40;2.10;;;;;;;11.45;100.00;100799.91;5046307;28;20045;-79
2023/07/04 00:18:37;;;;;;;12.18;2.35;;;;;;;11.45;100.00;100806.03;5032101;28;20068;-79
2023/07/04 00:21:11;;;;;;;8.70;2.10;;;;;;;11.44;100.00;100803.44;5008251;28;20041;-79
2023/07/04 00:23:45;;;;;;;12.73;2.75;;;;;;;11.43;100.00;100805.16;5036094;28;20049;-78
2023/07/04 00:26:18;;;;;;;11.95;2.67;;;;;;;11.43;100.00;100809.56;5045727;28;20049;-80
2023/07/04 00:28:46;;;;;;;9.07;1.80;;;;;;;11.44;100.00;100806.06;5002664;28;20052;-79
2023/07/04 00:31:17;;;;;;;10.70;2.60;;;;;;;11.42;100.00;100806.06;5030595;28;20419;-81
2023/07/04 00:33:46;;;;;;;6.90;2.15;;;;;;;11.44;100.00;100803.44;5026708;28;20049;-78
2023/07/04 00:36:16;;;;;;;12.73;2.65;;;;;;;11.43;100.00;100805.16;4997250;28;20671;-80
2023/07/04 00:38:48;;;;;;;12.60;2.42;;;;;;;11.43;100.00;100807.81;5017793;28;20045;-79
2023/07/04 00:41:23;;;;;;;7.88;2.40;;;;;;;11.42;100.00;100807.84;5050406;28;20037;-78
2023/07/04 00:44:13;;;;;;;8.70;2.05;;;;;;;11.41;100.00;100806.06;5028514;28;20041;-79
2023/07/04 00:46:52;;;;;;;8.77;1.73;;;;;;;11.40;100.00;100814.84;5041483;28;20049;-79
2023/07/04 00:49:27;;;;;;;11.82;2.50;;;;;;;11.41;100.00;100812.22;5030529;28;20420;-79
2023/07/04 00:52:06;;;;;;;9.10;2.10;;;;;;;11.41;100.00;100819.25;5000962;28;20037;-79
2023/07/04 00:54:38;;;;;;;8.32;2.00;;;;;;;11.43;100.00;100820.13;5041585;28;20041;-80
2023/07/04 00:57:06;;;;;;;6.18;2.10;;;;;;;11.40;100.00;100818.38;5044410;28;20039;-79
2023/07/04 00:59:43;;;;;;;9.07;2.65;;;;;;;11.40;100.00;100818.38;5027515;28;20052;-79
2023/07/04 01:02:22;;;;;;;7.32;1.88;;;;;;;11.38;100.00;100817.50;5047471;28;20049;-78
2023/07/04 01:04:52;;;;;;;9.40;2.22;;;;;;;11.38;100.00;100820.16;5040575;28;20515;-78
2023/07/04 01:07:45;;;;;;;12.52;3.22;;;;;;;11.37;100.00;100815.72;5007898;28;20056;-79
2023/07/04 01:10:17;;;;;;;8.23;2.20;;;;;;;11.35;100.00;100820.13;5027775;28;20060;-78
2023/07/04 01:12:46;;;;;;;9.82;2.72;;;;;;;11.34;100.00;100830.69;5040226;28;20061;-79
2023/07/04 01:15:14;;;;;;;11.40;2.33;;;;;;;11.33;100.00;100824.53;5033762;28;20037;-78
2023/07/04 01:17:42;;;;;;;7.30;2.08;;;;;;;11.31;100.00;100826.28;5022975;28;20053;-78
2023/07/04 01:20:16;;;;;;;8.38;2.00;;;;;;;11.31;100.00;100827.16;5027080;28;20050;-79
2023/07/04 01:23:08;;;;;;;10.27;2.08;;;;;;;11.34;100.00;100833.31;5001030;28;20051;-79
2023/07/04 01:25:41;;;;;;;5.38;2.22;;;;;;;11.34;100.00;100828.91;5016250;28;20072;-80
2023/07/04 01:28:13;;;;;;;8.13;2.08;;;;;;;11.33;100.00;100835.09;5024521;28;20041;-80
2023/07/04 01:30:43;;;;;;;10.13;2.55;;;;;;;11.34;100.00;100828.03;5026130;28;20053;-79
2023/07/04 01:33:13;;;;;;;15.18;2.42;;;;;;;11.33;100.00;100827.16;5025802;28;20049;-80
2023/07/04 01:35:41;;;;;;;9.27;2.28;;;;;;;11.34;100.00;100825.41;5031231;28;20061;-79
2023/07/04 01:38:08;;;;;;;9.45;2.25;;;;;;;11.36;100.00;100824.53;5008457;28;20496;-79
2023/07/04 01:40:36;;;;;;;11.10;2.05;;;;;;;11.39;100.00;100823.66;5017863;28;20056;-79
2023/07/04 01:43:05;;;;;;;6.43;1.73;;;;;;;11.43;100.00;100820.13;5017858;28;20046;-79
2023/07/04 01:45:33;;;;;;;9.95;2.20;;;;;;;11.47;100.00;100827.16;5046944;28;20411;-80
2023/07/04 01:48:00;;;;;;;9.18;2.45;;;;;;;11.48;100.00;100823.66;5023394;28;20053;-80
2023/07/04 01:50:28;;;;;;;10.35;2.22;;;;;;;11.49;100.00;100828.94;5046602;28;20049;-80
2023/07/04 01:52:55;;;;;;;13.30;2.63;;;;;;;11.48;100.00;100821.88;5010711;28;20048;-79
2023/07/04 01:55:24;;;;;;;9.75;2.63;;;;;;;11.50;100.00;100827.16;5036447;28;20415;-80
2023/07/04 01:57:52;;;;;;;3.72;2.17;;;;;;;11.48;100.00;100821.00;5041110;28;20045;-80
2023/07/04 02:00:22;;;;;;;9.63;2.35;;;;;;;11.49;100.00;100821.00;5053362;28;20503;-81
2023/07/04 02:02:56;;;;;;;7.35;2.10;;;;;;;11.49;100.00;100825.38;5034185;28;20049;-80
2023/07/04 02:05:25;;;;;;;10.73;2.42;;;;;;;11.46;100.00;100823.66;5051377;28;20056;-80
2023/07/04 02:07:53;;;;;;;7.15;2.25;;;;;;;11.44;100.00;100830.69;5032205;28;20808;-79
2023/07/04 02:10:21;;;;;;;9.98;2.22;;;;;;;11.42;100.00;100834.22;4987905;28;20057;-78
2023/07/04 02:12:50;;;;;;;11.05;2.35;;;;;;;11.40;100.00;100833.31;5017458;28;20491;-81
2023/07/04 02:15:17;;;;;;;9.23;2.10;;;;;;;11.35;100.00;100832.47;5032833;28;20045;-79
2023/07/04 02:17:47;;;;;;;10.10;2.50;;;;;;;11.34;100.00;100835.97;5019095;28;20049;-79
2023/07/04 02:20:16;;;;;;;13.50;2.60;;;;;;;11.29;100.00;100839.47;5015240;28;20522;-79
2023/07/04 02:22:45;;;;;;;10.38;2.55;;;;;;;11.26;100.00;100834.19;5031904;28;20504;-79
2023/07/04 02:25:13;;;;;;;13.95;3.47;;;;;;;11.23;100.00;100839.50;4978526;28;20049;-80
2023/07/04 02:27:40;;;;;;;5.13;1.73;;;;;;;11.22;100.00;100835.06;5021452;28;20053;-81
2023/07/04 02:30:08;;;;;;;9.68;2.22;;;;;;;11.23;100.00;100830.69;5030871;28;20041;-79
2023/07/04 02:32:35;;;;;;;2.88;2.10;;;;;;;11.24;100.00;100829.81;5008129;28;20053;-78
2023/07/04 02:35:05;;;;;;;7.45;2.10;;;;;;;11.24;100.00;100835.09;5013793;28;20046;-81
2023/07/04 02:37:36;;;;;;;9.85;2.45;;;;;;;11.22;100.00;100826.28;5014172;28;20064;-79
2023/07/04 02:40:04;;;;;;;10.18;2.33;;;;;;;11.22;100.00;100832.44;5030875;28;20802;-81
2023/07/04 02:42:32;;;;;;;11.43;2.83;;;;;;;11.21;100.00;100833.34;4996501;28;20046;-80
2023/07/04 02:45:00;;;;;;;7.63;2.75;;;;;;;11.21;100.00;100848.25;5027884;28;20057;-78
2023/07/04 02:47:28;;;;;;;8.85;2.92;;;;;;;11.23;100.00;100846.53;5017664;28;20049;-80
2023/07/04 02:50:00;;;;;;;4.30;1.80;;;;;;;11.25;100.00;100848.28;5016833;28;20044;-78
2023/07/04 02:52:30;;;;;;;6.75;2.00;;;;;;;11.26;100.00;100842.09;5031802;28;20045;-81
2023/07/04 02:54:58;;;;;;;9.57;3.03;;;;;;;11.24;100.00;100835.94;5046734;28;20060;-80
2023/07/04 02:57:26;;;;;;;10.65;2.53;;;;;;;11.23;100.00;100842.13;4987190;28;20045;-80
2023/07/04 02:59:55;;;;;;;3.92;2.28;;;;;;;11.23;100.00;100847.41;5018012;28;20835;-80
2023/07/04 03:02:23;;;;;;;10.05;2.40;;;;;;;11.25;100.00;100848.28;4997351;28;20067;-78
2023/07/04 03:04:55;;;;;;;7.00;2.50;;;;;;;11.24;100.00;100851.78;4998496;28;20057;-81
2023/07/04 03:07:26;;;;;;;7.72;2.63;;;;;;;11.27;100.00;100848.28;5016852;28;20068;-79
2023/07/04 03:09:53;;;;;;;5.32;2.25;;;;;;;11.26;100.00;100857.94;5029523;28;20049;-81
2023/07/04 03:12:24;;;;;;;5.47;2.15;;;;;;;11.24;100.00;100850.91;4993408;28;20056;-81
2023/07/04 03:14:52;;;;;;;9.68;2.72;;;;;;;11.23;100.00;100854.44;4991212;28;20045;-79
2023/07/04 03:17:22;;;;;;;7.07;3.47;;;;;;;11.22;100.00;100858.81;5033976;28;20045;-80
2023/07/04 03:19:50;;;;;;;9.15;3.15;;;;;;;11.23;100.00;100859.72;5024406;28;20056;-78
2023/07/04 03:22:19;;;;;;;7.15;2.60;;;;;;;11.23;100.00;100867.63;5017169;28;20049;-79
2023/07/04 03:24:47;;;;;;;9.20;3.17;;;;;;;11.22;100.00;100856.19;5004744;28;20037;-78
2023/07/04 03:27:16;;;;;;;8.73;2.63;;;;;;;11.23;100.00;100849.16;4975693;28;20052;-79
2023/07/04 03:29:44;;;;;;;11.82;3.15;;;;;;;11.26;100.00;100843.88;5010086;28;20040;-79
2023/07/04 03:32:12;;;;;;;5.50;2.33;;;;;;;11.28;100.00;100842.13;5029980;28;20060;-79
2023/07/04 03:34:39;;;;;;;7.72;2.58;;;;;;;11.30;100.00;100833.34;5005140;28;20056;-79
2023/07/04 03:37:07;;;;;;;8.63;2.85;;;;;;;11.32;100.00;100836.84;5031567;28;20052;-80
2023/07/04 03:39:34;;;;;;;3.88;2.30;;;;;;;11.35;100.00;100845.66;4998026;28;20041;-79
2023/07/04 03:42:02;;;;;;;9.00;2.85;;;;;;;11.36;100.00;100844.75;5031932;28;20065;-80
2023/07/04 03:44:29;;;;;;;7.57;2.40;;;;;;;11.39;100.00;100839.47;4964002;28;20041;-78
2023/07/04 03:46:57;;;;;;;9.30;2.97;;;;;;;11.41;100.00;100843.88;5025148;28;20046;-78
2023/07/04 03:49:24;;;;;;;5.85;2.28;;;;;;;11.45;100.00;100837.69;5031954;28;20041;-79
2023/07/04 03:51:52;;;;;;;7.97;2.42;;;;;;;11.49;100.00;100838.59;4994588;28;20056;-79
2023/07/04 03:54:19;;;;;;;9.05;2.33;;;;;;;11.55;100.00;100841.25;5048359;28;20056;-78
2023/07/04 03:56:47;;;;;;;5.60;2.45;;;;;;;11.60;100.00;100841.22;5044013;28;20044;-78
2023/07/04 03:59:15;;;;;;;3.40;2.25;;;;;;;11.65;100.00;100835.06;5003793;28;20049;-77
2023/07/04 04:01:43;;;;;;;5.30;2.40;;;;;;;11.73;100.00;100823.63;5024029;28;20059;-78
2023/07/04 04:04:11;;;;;;;5.28;2.78;;;;;;;11.78;100.00;100828.00;5048914;28;20049;-78
2023/07/04 04:06:39;;;;;;;7.47;2.67;;;;;;;11.84;100.00;100832.38;5011585;28;20064;-80
2023/07/04 04:09:06;;;;;;;8.00;3.33;;;;;;;11.95;100.00;100835.91;5021275;28;20078;-78
2023/07/04 04:11:33;;;;;;;8.40;2.30;;;;;;;12.08;100.00;100845.56;5007482;28;20049;-78
2023/07/04 04:14:01;;;;;;;6.80;2.53;;;;;;;12.44;100.00;100834.88;4991441;28;20049;-79
2023/07/04 04:16:28;;;;;;;3.35;1.80;;;;;;;12.87;100.00;100838.16;5019634;28;20045;-77
2023/07/04 04:18:56;;;;;;;4.88;2.05;;;;;;;13.38;100.00;100832.50;5019247;28;20053;-78
2023/07/04 04:21:23;;;;;;;4.65;1.65;;;;;;;13.97;100.00;100837.22;5027011;28;20045;-77
2023/07/04 04:23:54;;;;;;;6.00;2.13;;;;;;;14.54;100.00;100834.75;5011220;28;20424;-78
2023/07/04 04:26:23;;;;;;;10.77;2.08;;;;;;;15.14;100.00;100827.72;5035529;28;20037;-77
2023/07/04 04:28:50;;;;;;;1.85;1.55;;;;;;;15.68;100.00;100834.78;4983881;28;20049;-78
2023/07/04 04:31:18;;;;;;;6.90;1.60;;;;;;;15.74;100.00;100840.88;5006867;28;20061;-78
2023/07/04 04:33:47;;;;;;;4.70;1.50;;;;;;;16.12;100.00;100838.41;5027820;28;20059;-77
2023/07/04 04:36:17;;;;;;;2.08;1.23;;;;;;;16.47;100.00;100837.69;5011606;28;20068;-77
2023/07/04 04:38:44;;;;;;;3.97;1.33;;;;;;;16.77;100.00;100841.47;5027485;28;20084;-78
2023/07/04 04:41:12;;;;;;;4.35;1.50;;;;;;;17.09;100.00;100844.34;5017334;28;20050;-77
2023/07/04 04:43:40;;;;;;;2.90;1.20;;;;;;;17.41;100.00;100846.22;5005228;28;20594;-78
2023/07/04 04:46:07;;;;;;;4.00;1.70;;;;;;;17.67;100.00;100856.16;4969079;28;20049;-78
2023/07/04 04:48:35;;;;;;;1.50;1.30;;;;;;;17.87;100.00;100854.81;5011489;28;20056;-79
2023/07/04 04:51:09;;;;;;;2.28;1.38;;;;;;;17.57;100.00;100852.00;5013944;28;20057;-78
2023/07/04 04:53:39;;;;;;;2.80;0.80;;;;;;;17.15;100.00;100857.50;5016439;28;20060;-80
2023/07/04 04:56:08;;;;;;;3.40;1.40;;;;;;;16.88;100.00;100851.00;5015284;28;20037;-78
2023/07/04 04:58:36;;;;;;;3.15;1.58;;;;;;;16.52;100.00;100845.56;5015814;28;20503;-77
2023/07/04 05:01:22;;;;;;;5.72;1.35;;;;;;;16.26;100.00;100857.63;5002691;28;20060;-79
2023/07/04 05:03:52;;;;;;;4.10;1.45;;;;;;;16.14;100.00;100855.19;5029761;28;20048;-77
2023/07/04 05:06:23;;;;;;;4.25;1.70;;;;;;;16.28;100.00;100845.19;5027310;28;20040;-77
2023/07/04 05:08:51;;;;;;;7.70;1.70;;;;;;;16.22;100.00;100850.63;5022094;28;20049;-78
2023/07/04 05:11:20;;;;;;;5.97;1.75;;;;;;;16.25;100.00;100844.34;5029796;28;20443;-79
2023/07/04 05:13:48;;;;;;;3.90;1.63;;;;;;;16.46;100.00;100848.34;5044928;28;20068;-78
2023/07/04 05:16:18;;;;;;;8.32;1.67;;;;;;;16.30;100.00;100854.00;4991427;28;20041;-79
2023/07/04 05:18:47;;;;;;;5.47;1.60;;;;;;;16.13;100.00;100854.34;5032886;28;20045;-77
2023/07/04 05:21:18;;;;;;;3.00;1.30;;;;;;;15.92;100.00;100858.28;5031925;28;20049;-78
2023/07/04 05:23:48;;;;;;;5.00;1.80;;;;;;;15.76;100.00;100859.47;5041845;28;20131;-78
2023/07/04 05:26:25;;;;;;;2.38;1.30;;;;;;;15.62;100.00;100858.81;5028036;28;20037;-79
2023/07/04 05:28:55;;;;;;;5.40;1.92;;;;;;;15.55;100.00;100856.25;5038138;28;20076;-79
2023/07/04 05:31:25;;;;;;;5.45;1.70;;;;;;;15.53;100.00;100859.84;4979154;28;20045;-79
2023/07/04 05:33:54;;;;;;;6.57;1.58;;;;;;;15.69;100.00;100857.78;5030355;28;20061;-79
2023/07/04 05:36:30;;;;;;;8.48;1.92;;;;;;;15.75;100.00;100863.03;5045766;28;20041;-80
2023/07/04 05:39:02;;;;;;;8.88;2.10;;;;;;;15.73;100.00;100857.75;5033952;28;20049;-79
2023/07/04 05:41:32;;;;;;;7.50;2.47;;;;;;;15.65;100.00;100851.66;5030463;28;20438;-78
2023/07/04 05:44:03;;;;;;;6.45;2.20;;;;;;;15.51;100.00;100859.84;5024350;28;20056;-79
2023/07/04 05:46:30;;;;;;;4.65;2.00;;;;;;;15.48;100.00;100859.94;4986875;28;20041;-79
2023/07/04 05:48:58;;;;;;;5.47;1.95;;;;;;;15.64;100.00;100868.50;5034420;28;20862;-78
2023/07/04 05:51:26;;;;;;;5.47;2.28;;;;;;;15.90;100.00;100875.19;5023989;28;20045;-79
2023/07/04 05:53:54;;;;;;;5.03;2.40;;;;;;;15.89;100.00;100876.94;5005311;28;20053;-78
2023/07/04 05:56:28;;;;;;;6.60;2.22;;;;;;;15.76;100.00;100881.63;5038459;28;20052;-79
2023/07/04 05:58:58;;;;;;;7.50;2.63;;;;;;;15.72;100.00;100876.34;5045491;28;20041;-79
2023/07/04 06:01:34;;;;;;;11.32;2.72;;;;;;;15.87;100.00;100872.56;4990560;28;20045;-79
2023/07/04 06:04:03;;;;;;;4.95;1.98;;;;;;;16.13;100.00;100872.94;5039096;28;20060;-79
2023/07/04 06:06:35;;;;;;;7.22;2.47;;;;;;;16.44;100.00;100882.09;5046668;28;20506;-79
2023/07/04 06:09:06;;;;;;;6.30;2.28;;;;;;;16.68;100.00;100878.91;5035527;28;20049;-78
2023/07/04 06:11:36;;;;;;;5.93;2.35;;;;;;;16.81;100.00;100881.31;5029307;28;20044;-79
2023/07/04 06:14:04;;;;;;;;;;;;;;;17.02;100.00;100880.00;4999885;28;20053;-80
2023/07/04 06:16:33;;;;;;;7.07;1.90;;;;;;;17.10;100.00;100878.00;5028523;28;19928;-78
2023/07/04 06:19:01;;;;;;;3.80;1.70;;;;;;;17.11;100.00;100891.31;4988286;28;20056;-78
2023/07/04 06:21:28;;;;;;;6.45;1.85;;;;;;;17.07;100.00;100880.75;5048105;28;20067;-78
2023/07/04 06:24:11;;;;;;;5.90;2.20;;;;;;;16.91;100.00;100883.75;5033055;28;20053;-78
2023/07/04 06:26:39;;;;;;;3.67;2.10;;;;;;;16.81;100.00;100887.50;5010687;28;20156;-78
2023/07/04 06:29:06;;;;;;;8.48;2.45;;;;;;;16.71;100.00;100892.16;5009088;28;20049;-79
2023/07/04 06:31:33;;;;;;;2.55;1.33;;;;;;;16.52;100.00;100893.44;5039191;28;20609;-79
2023/07/04 06:34:01;;;;;;;8.45;2.45;;;;;;;16.39;100.00;100898.16;4978756;28;20048;-79
2023/07/04 06:36:28;;;;;;;6.78;1.67;;;;;;;16.23;100.00;100896.69;5014692;28;20069;-79
2023/07/04 06:39:00;;;;;;;7.70;1.75;;;;;;;16.04;100.00;100902.34;5026908;28;20056;-79
2023/07/04 06:41:28;;;;;;;6.45;1.90;;;;;;;15.91;100.00;100904.34;5048941;28;20515;-79
2023/07/04 06:43:55;;;;;;;5.65;1.88;;;;;;;15.87;100.00;100915.94;5032462;28;20060;-80
2023/07/04 06:46:23;;;;;;;4.85;1.80;;;;;;;15.95;100.00;100911.38;4998864;28;20044;-79
2023/07/04 06:48:51;;;;;;;6.85;1.40;;;;;;;16.01;100.00;100909.50;4989943;28;20523;-79
2023/07/04 06:51:20;;;;;;;11.05;1.58;;;;;;;16.10;100.00;100914.66;5040765;28;20052;-80
2023/07/04 06:53:48;;;;;;;5.18;1.38;;;;;;;16.14;100.00;100913.69;5051601;28;20049;-81
2023/07/04 06:56:19;;;;;;;6.00;1.73;;;;;;;16.11;100.00;100924.41;5036765;28;20048;-80
2023/07/04 06:58:54;;;;;;;6.47;1.17;;;;;;;16.16;100.00;100915.44;5036266;28;20067;-80
2023/07/04 07:01:26;;;;;;;6.40;1.65;;;;;;;16.28;100.00;100908.13;5047680;28;20053;-80
2023/07/04 07:03:59;;;;;;;5.65;1.33;;;;;;;16.37;100.00;100910.59;5008748;28;20068;-78
2023/07/04 07:06:28;;;;;;;3.60;1.23;;;;;;;16.41;100.00;100911.41;5039720;28;20048;-78
2023/07/04 07:08:56;;;;;;;2.95;1.13;;;;;;;16.44;100.00;100914.88;5046473;28;20049;-78
2023/07/04 07:11:24;;;;;;;3.58;1.98;;;;;;;16.47;100.00;100925.47;5022706;28;20049;-78
2023/07/04 07:13:52;;;;;;;5.10;1.50;;;;;;;16.57;100.00;100926.16;5031386;28;20064;-79
2023/07/04 07:16:23;;;;;;;3.25;1.30;;;;;;;16.64;100.00;100930.44;5014371;28;20060;-78
2023/07/04 07:18:54;;;;;;;3.97;1.80;;;;;;;16.68;100.00;100929.47;5044547;28;20431;-78
2023/07/04 07:21:24;;;;;;;4.82;1.30;;;;;;;16.73;100.00;100938.25;4979008;28;20052;-79
2023/07/04 07:23:53;;;;;;;3.05;1.38;;;;;;;16.73;100.00;100946.22;5041764;28;20049;-78
2023/07/04 07:26:25;;;;;;;6.55;1.23;;;;;;;16.69;100.00;100939.22;5048589;28;20062;-79
2023/07/04 07:28:56;;;;;;;2.95;1.02;;;;;;;16.64;100.00;100937.56;5010064;28;20052;-78
2023/07/04 07:31:26;;;;;;;4.47;1.10;;;;;;;16.56;100.00;100929.72;5023403;28;20495;-78
2023/07/04 07:34:01;;;;;;;2.88;1.30;;;;;;;16.53;100.00;100932.44;5032445;28;20045;-78
2023/07/04 07:36:38;;;;;;;2.33;1.10;;;;;;;16.47;100.00;100936.09;4998047;28;20033;-79
2023/07/04 07:39:07;;;;;;;2.67;1.13;;;;;;;16.43;100.00;100933.53;5019780;28;20050;-79
2023/07/04 07:41:39;;;;;;;9.23;1.45;;;;;;;16.48;100.00;100936.97;5042719;28;20037;-79
2023/07/04 07:44:08;;;;;;;2.65;1.17;;;;;;;16.56;100.00;100940.38;5032041;28;20052;-78
2023/07/04 07:46:37;;;;;;;3.00;0.95;;;;;;;16.66;100.00;100943.72;5031825;28;20049;-78
2023/07/04 07:49:04;;;;;;;2.83;1.05;;;;;;;16.62;100.00;100947.34;5019494;28;20056;-78
2023/07/04 07:51:32;;;;;;;5.35;1.65;;;;;;;16.59;100.00;100952.72;5001253;28;20050;-79
2023/07/04 07:54:01;;;;;;;4.90;1.30;;;;;;;16.56;100.00;100945.69;4975604;28;20060;-79
2023/07/04 07:56:39;;;;;;;2.88;1.48;;;;;;;16.63;100.00;100949.09;5024579;28;20061;-78
2023/07/04 07:59:07;;;;;;;3.22;1.05;;;;;;;16.68;100.00;100957.88;5012427;28;20060;-78
2023/07/04 08:01:35;;;;;;;7.50;1.30;;;;;;;16.72;100.00;100955.09;5005087;28;20058;-80
2023/07/04 08:04:04;;;;;;;5.65;1.60;;;;;;;16.75;100.00;100957.72;5044294;28;20048;-77
2023/07/04 08:06:42;;;;;;;4.10;1.27;;;;;;;16.76;100.00;100958.56;5042970;28;20385;-80
2023/07/04 08:09:13;;;;;;;2.53;1.10;;;;;;;16.73;100.00;100959.53;4998651;28;20060;-78
2023/07/04 08:11:42;;;;;;;1.83;1.00;;;;;;;16.83;100.00;100959.38;5040257;28;20064;-79
2023/07/04 08:14:09;;;;;;;6.60;1.30;;;;;;;16.92;100.00;100959.19;5043868;28;20045;-78
2023/07/04 08:16:52;;;;;;;1.00;0.90;;;;;;;16.94;100.00;100960.88;4997401;28;20042;-78
2023/07/04 08:19:23;;;;;;;5.47;1.20;;;;;;;16.97;100.00;100967.06;5041068;28;20049;-78
2023/07/04 08:21:53;;;;;;;3.55;1.20;;;;;;;16.97;100.00;100967.06;5036722;28;20048;-77
2023/07/04 08:24:21;;;;;;;0.93;0.82;;;;;;;16.96;100.00;100968.84;4969712;28;20053;-77
2023/07/04 08:26:55;;;;;;;4.20;1.20;;;;;;;16.93;100.00;100974.22;5025894;28;20051;-78
2023/07/04 08:29:22;;;;;;;1.85;0.95;;;;;;;17.03;100.00;100965.16;5030455;28;20060;-79
2023/07/04 08:31:50;;;;;;;3.72;1.10;;;;;;;17.18;100.00;100969.22;4982654;28;20049;-77
2023/07/04 08:34:18;;;;;;;2.38;1.10;;;;;;;17.31;100.00;100972.50;5025875;28;20995;-79
2023/07/04 08:36:45;;;;;;;2.85;1.05;;;;;;;17.38;100.00;100979.44;5006488;28;20053;-79
2023/07/04 08:39:13;;;;;;;3.70;1.40;;;;;;;17.46;100.00;100977.47;4991906;28;20695;-78
2023/07/04 08:41:52;;;;;;;4.20;1.00;;;;;;;17.43;100.00;100979.31;5008228;28;20060;-78
2023/07/04 08:44:22;;;;;;;5.20;1.73;;;;;;;17.45;100.00;100986.41;5048154;28;20045;-79
2023/07/04 08:46:54;;;;;;;4.20;1.00;;;;;;;17.40;100.00;100988.28;5034155;28;20042;-79
2023/07/04 08:49:36;;;;;;;2.15;1.30;;;;;;;17.52;100.00;100987.13;5044217;28;20045;-78
2023/07/04 08:52:09;;;;;;;1.92;0.82;;;;;;;17.74;100.00;100995.47;5026967;28;20444;-78
2023/07/04 08:54:37;;;;;;;4.00;1.15;;;;;;;17.96;100.00;100987.88;4995833;28;20050;-78
2023/07/04 08:57:42;;;;;;;3.47;1.15;;;;;;;18.03;100.00;101004.56;5024564;28;20463;-79
2023/07/04 09:00:25;;;;;;;2.28;1.05;;;;;;;17.83;100.00;101008.59;5035019;28;20045;-79
2023/07/04 09:03:13;;;;;;;4.43;1.15;;;;;;;17.56;100.00;101002.16;5045917;28;20068;-78
2023/07/04 09:05:48;;;;;;;4.82;1.50;;;;;;;17.45;100.00;101013.03;5008325;28;20064;-78
2023/07/04 09:08:30;;;;;;;3.75;1.27;;;;;;;17.48;100.00;101002.28;5047426;28;20049;-79
2023/07/04 09:11:05;;;;;;;8.18;1.27;;;;;;;17.46;100.00;101005.91;4990440;28;20048;-79
2023/07/04 09:13:43;;;;;;;2.13;1.00;;;;;;;17.36;100.00;101004.38;5040973;28;20045;-78
2023/07/04 09:16:24;;;;;;;5.07;1.42;;;;;;;17.27;100.00;101008.97;5022808;28;20041;-77
2023/07/04 09:18:54;;;;;;;;;;;;;;;17.33;100.00;101010.63;5023261;28;20508;-77
2023/07/04 09:21:25;;;;;;;2.40;1.27;;;;;;;17.43;100.00;101012.19;5025821;28;19999;-79
2023/07/04 09:23:54;;;;;;;;;;;;;;;17.58;100.00;100994.09;5010500;28;20059;-77
2023/07/04 09:26:25;;;;;;;9.23;1.50;;;;;;;17.79;100.00;101012.25;5012995;28;19925;-78
2023/07/04 09:28:54;;;;;;;5.57;1.70;;;;;;;17.99;100.00;101013.56;5029622;28;20522;-78
2023/07/04 09:31:29;;;;;;;4.65;1.52;;;;;;;18.06;100.00;101009.84;5013631;28;20784;-78
2023/07/04 09:34:02;;;;;;;6.32;1.90;;;;;;;17.94;100.00;101008.38;5025224;28;20069;-78
2023/07/04 09:36:32;;;;;;;5.50;1.77;;;;;;;17.83;100.00;101019.25;5030072;28;20046;-78
2023/07/04 09:39:04;;;;;;;3.72;1.40;;;;;;;17.69;100.00;101029.34;4981119;28;20400;-78
2023/07/04 09:41:34;;;;;;;4.55;1.30;;;;;;;17.43;100.00;101046.81;5042143;28;20052;-78
2023/07/04 09:44:26;;;;;;;7.85;1.92;;;;;;;17.08;100.00;101037.78;5028226;28;20057;-80
2023/07/04 09:46:56;;;;;;;6.97;1.75;;;;;;;16.69;100.00;101048.31;5045435;28;20396;-77
2023/07/04 09:49:29;;;;;;;;;;;;;;;16.38;100.00;101055.97;5010036;28;20049;-77
2023/07/04 09:52:05;;;;;;;6.10;1.60;;;;;;;16.08;100.00;101060.88;5030113;28;19920;-79
2023/07/04 09:54:35;;;;;;;5.47;1.92;;;;;;;15.89;100.00;101054.97;5031098;28;20052;-78
2023/07/04 09:57:23;;;;;;;4.65;1.80;;;;;;;15.87;100.00;101051.47;4998978;28;20041;-79
2023/07/04 09:59:52;;;;;;;7.43;2.10;;;;;;;15.95;100.00;101048.69;5034871;28;20064;-79
2023/07/04 10:02:24;;;;;;;8.77;1.98;;;;;;;16.08;100.00;101044.94;5035302;28;20040;-78
2023/07/04 10:04:53;;;;;;;6.00;1.92;;;;;;;16.26;100.00;101033.13;5029294;28;20053;-78
2023/07/04 10:07:23;;;;;;;6.13;1.85;;;;;;;16.40;100.00;101034.66;5043990;28;20048;-79
2023/07/04 10:09:56;;;;;;;5.80;1.80;;;;;;;16.59;100.00;101040.50;5023202;28;20045;-79
2023/07/04 10:12:31;;;;;;;3.20;1.55;;;;;;;16.72;100.00;101040.25;4999336;28;20052;-78
2023/07/04 10:15:00;;;;;;;8.75;1.65;;;;;;;16.71;100.00;101043.81;5013445;28;20049;-79
2023/07/04 10:17:28;;;;;;;7.80;1.50;;;;;;;16.78;100.00;101039.25;5047013;28;20041;-78
2023/07/04 10:20:00;;;;;;;6.82;1.73;;;;;;;16.90;100.00;101043.47;5030938;28;20052;-80
2023/07/04 10:22:34;;;;;;;5.80;1.90;;;;;;;17.09;100.00;101041.34;5036838;28;20045;-78
2023/07/04 10:25:05;;;;;;;9.13;2.40;;;;;;;17.13;100.00;101043.91;5044261;28;20045;-78
2023/07/04 10:27:36;;;;;;;7.43;1.60;;;;;;;17.23;100.00;101035.72;5021813;28;20647;-79
2023/07/04 10:30:07;;;;;;;5.43;2.00;;;;;;;17.43;100.00;101036.16;5038586;28;20052;-78
2023/07/04 10:32:41;;;;;;;3.85;1.40;;;;;;;17.71;100.00;101030.19;5033253;28;20291;-79
2023/07/04 10:35:13;;;;;;;4.07;1.50;;;;;;;17.90;100.00;101031.56;5036035;28;20053;-79
2023/07/04 10:37:44;;;;;;;6.10;1.48;;;;;;;18.14;100.00;101038.97;5044889;28;20045;-81
2023/07/04 10:40:15;;;;;;;5.93;1.88;;;;;;;18.38;100.00;101041.03;5022602;28;20045;-80
2023/07/04 10:43:03;;;;;;;2.38;1.30;;;;;;;18.59;100.00;101036.91;5017356;28;20071;-79
2023/07/04 10:45:32;;;;;;;7.25;1.75;;;;;;;18.74;100.00;101045.41;5019671;28;20056;-77
2023/07/04 10:48:07;;;;;;;7.63;1.90;;;;;;;18.87;100.00;101049.53;5042018;28;20029;-78
2023/07/04 10:50:47;;;;;;;3.47;1.05;;;;;;;19.02;100.00;101046.41;5022648;28;20692;-80
2023/07/04 10:53:14;;;;;;;11.60;2.35;;;;;;;19.04;100.00;101043.72;5030386;28;20049;-78
2023/07/04 10:56:06;;;;;;;5.85;1.10;;;;;;;18.84;100.00;101068.28;5021784;28;20164;-78
2023/07/04 10:58:40;;;;;;;3.55;1.15;;;;;;;18.57;100.00;101076.09;5019665;28;20056;-78
2023/07/04 11:01:20;;;;;;;2.45;0.85;;;;;;;18.04;100.00;101081.88;5031884;28;20484;-78
2023/07/04 11:04:05;;;;;;;3.03;1.00;;;;;;;17.50;100.00;101079.53;5031666;28;20072;-77
2023/07/04 11:06:42;;;;;;;2.17;1.20;;;;;;;16.99;100.00;101077.91;5004408;28;20448;-78
2023/07/04 11:09:15;;;;;;;5.97;1.27;;;;;;;16.66;100.00;101080.28;5039076;28;20044;-77
2023/07/04 11:11:47;;;;;;;3.65;1.40;;;;;;;16.49;100.00;101074.38;5021750;28;20064;-79
2023/07/04 11:14:24;;;;;;;2.42;0.93;;;;;;;16.43;100.00;101087.81;4994904;28;20115;-78
2023/07/04 11:16:56;;;;;;;6.40;1.38;;;;;;;16.52;100.00;101076.97;5038186;28;20053;-79
2023/07/04 11:19:30;;;;;;;4.00;1.50;;;;;;;16.61;100.00;101082.13;5007982;28;20044;-78
2023/07/04 11:22:00;;;;;;;3.67;1.30;;;;;;;16.60;100.00;101080.41;5027248;28;20072;-79
2023/07/04 11:24:38;;;;;;;3.78;1.38;;;;;;;16.58;100.00;101074.22;5031801;28;20050;-81
2023/07/04 11:27:31;;;;;;;5.22;1.88;;;;;;;16.56;100.00;101078.72;5026269;28;20052;-83
2023/07/04 11:30:02;;;;;;;7.13;1.60;;;;;;;16.55;100.00;101079.59;5014799;28;20060;-81
2023/07/04 11:32:36;;;;;;;4.25;1.73;;;;;;;16.76;100.00;101070.34;5014979;28;20056;-82
2023/07/04 11:35:09;;;;;;;3.33;1.50;;;;;;;17.13;100.00;101083.84;5051267;28;20063;-81